Hovedside
METAR-TAF:

METAR-TAF

Lufthavner :

Kolding, Danmark

Vamdrup

breddegrad: 55-26N, lengdegrad: 009-20E, høyde over havet: 44 m

Gjeldene værobservasjon

Denne rapporten ble laget for 26 minutter siden, klokken 19:50 UTC
Vind 11 kt fra Vest-sørvest
Temperatur 15°C
Luftfuktighet 94%
Trykk 1015 hPa

METAR: EKVD 281950Z AUTO 25011KT //// ///////// 15/14 Q1015

Tid: 22:16 (20:16 UTC)


TAF: fraværende

Værobservasjoner og værvarsel for over 4000 flyplasser (METAR- og TAF-rapporter).

Tilgjengelige stasjoner er representert av de røde og gule prikkene på kartet.

Hold musepekeren over prikken for å se navnet på stasjonen.

Klikk så for å se værobservasjoner og -varsler.

For å forandre kartet kan du klikke på den grønne knappen med svart kryss for å zoome inn, på den grønne knappen med strek for å zoome ut, eller på de grønne pilene for å se tilstøtende kart.


METAR-TAF: